sensor_id;sensor_type;location;lat;lon;timestamp;pressure;altitude;pressure_sealevel;temperature;humidity
66273;BME280;58450;52.150;4.466;2024-03-08T00:01:38;101855.63;;;3.41;100.00
66273;BME280;58450;52.150;4.466;2024-03-08T00:04:06;101850.44;;;3.39;100.00
66273;BME280;58450;52.150;4.466;2024-03-08T00:06:34;101855.63;;;3.41;100.00
66273;BME280;58450;52.150;4.466;2024-03-08T00:09:03;101855.75;;;3.39;100.00
66273;BME280;58450;52.150;4.466;2024-03-08T00:11:33;101849.78;;;3.36;100.00
66273;BME280;58450;52.150;4.466;2024-03-08T00:14:01;101857.03;;;3.34;100.00
66273;BME280;58450;52.150;4.466;2024-03-08T00:16:33;101849.28;;;3.31;100.00
66273;BME280;58450;52.150;4.466;2024-03-08T00:19:01;101853.78;;;3.30;100.00
66273;BME280;58450;52.150;4.466;2024-03-08T00:21:28;101844.19;;;3.28;100.00
66273;BME280;58450;52.150;4.466;2024-03-08T00:23:56;101844.41;;;3.24;100.00
66273;BME280;58450;52.150;4.466;2024-03-08T00:26:25;101852.53;;;3.23;100.00
66273;BME280;58450;52.150;4.466;2024-03-08T00:28:53;101844.66;;;3.21;100.00
66273;BME280;58450;52.150;4.466;2024-03-08T00:31:20;101846.56;;;3.19;100.00
66273;BME280;58450;52.150;4.466;2024-03-08T00:33:48;101838.72;;;3.18;100.00
66273;BME280;58450;52.150;4.466;2024-03-08T00:36:15;101845.00;;;3.17;100.00
66273;BME280;58450;52.150;4.466;2024-03-08T00:38:43;101839.91;;;3.14;100.00
66273;BME280;58450;52.150;4.466;2024-03-08T00:41:10;101830.97;;;3.15;100.00
66273;BME280;58450;52.150;4.466;2024-03-08T00:43:39;101838.31;;;3.11;100.00
66273;BME280;58450;52.150;4.466;2024-03-08T00:46:07;101823.22;;;3.12;100.00
66273;BME280;58450;52.150;4.466;2024-03-08T00:48:34;101835.66;;;3.11;100.00
66273;BME280;58450;52.150;4.466;2024-03-08T00:51:04;101825.16;;;3.09;100.00
66273;BME280;58450;52.150;4.466;2024-03-08T00:53:31;101832.38;;;3.07;100.00
66273;BME280;58450;52.150;4.466;2024-03-08T00:55:59;101829.84;;;3.06;100.00
66273;BME280;58450;52.150;4.466;2024-03-08T00:58:26;101822.84;;;3.05;100.00
66273;BME280;58450;52.150;4.466;2024-03-08T01:00:55;101815.69;;;3.05;100.00
66273;BME280;58450;52.150;4.466;2024-03-08T01:03:23;101816.16;;;2.99;100.00
66273;BME280;58450;52.150;4.466;2024-03-08T01:05:50;101807.94;;;3.02;100.00
66273;BME280;58450;52.150;4.466;2024-03-08T01:08:18;101802.00;;;2.99;100.00
66273;BME280;58450;52.150;4.466;2024-03-08T01:10:45;101796.78;;;2.97;100.00
66273;BME280;58450;52.150;4.466;2024-03-08T01:13:13;101800.53;;;2.94;100.00
66273;BME280;58450;52.150;4.466;2024-03-08T01:15:41;101798.72;;;2.95;100.00
66273;BME280;58450;52.150;4.466;2024-03-08T01:18:09;101794.25;;;2.95;100.00
66273;BME280;58450;52.150;4.466;2024-03-08T01:20:37;101779.38;;;2.93;100.00
66273;BME280;58450;52.150;4.466;2024-03-08T01:23:06;101783.13;;;2.90;100.00
66273;BME280;58450;52.150;4.466;2024-03-08T01:25:33;101771.63;;;2.90;100.00
66273;BME280;58450;52.150;4.466;2024-03-08T01:28:01;101775.97;;;2.91;100.00
66273;BME280;58450;52.150;4.466;2024-03-08T01:30:29;101777.91;;;2.89;100.00
66273;BME280;58450;52.150;4.466;2024-03-08T01:32:58;101779.72;;;2.88;100.00
66273;BME280;58450;52.150;4.466;2024-03-08T01:35:27;101765.69;;;2.86;100.00
66273;BME280;58450;52.150;4.466;2024-03-08T01:37:55;101776.31;;;2.86;100.00
66273;BME280;58450;52.150;4.466;2024-03-08T01:40:22;101768.59;;;2.83;100.00
66273;BME280;58450;52.150;4.466;2024-03-08T01:42:50;101766.88;;;2.82;100.00
66273;BME280;58450;52.150;4.466;2024-03-08T01:45:17;101753.81;;;2.79;100.00
66273;BME280;58450;52.150;4.466;2024-03-08T01:47:45;101765.50;;;2.76;100.00
66273;BME280;58450;52.150;4.466;2024-03-08T01:50:14;101754.28;;;2.73;100.00
66273;BME280;58450;52.150;4.466;2024-03-08T01:52:44;101748.22;;;2.71;100.00
66273;BME280;58450;52.150;4.466;2024-03-08T01:55:12;101748.31;;;2.69;100.00
66273;BME280;58450;52.150;4.466;2024-03-08T01:57:42;101743.97;;;2.68;100.00
66273;BME280;58450;52.150;4.466;2024-03-08T02:00:11;101744.09;;;2.66;100.00
66273;BME280;58450;52.150;4.466;2024-03-08T02:02:42;101741.56;;;2.65;100.00
66273;BME280;58450;52.150;4.466;2024-03-08T02:05:10;101739.22;;;2.60;100.00
66273;BME280;58450;52.150;4.466;2024-03-08T02:07:41;101732.94;;;2.61;100.00
66273;BME280;58450;52.150;4.466;2024-03-08T02:10:11;101733.16;;;2.58;100.00
66273;BME280;58450;52.150;4.466;2024-03-08T02:12:39;101730.63;;;2.57;100.00
66273;BME280;58450;52.150;4.466;2024-03-08T02:15:07;101730.88;;;2.54;100.00
66273;BME280;58450;52.150;4.466;2024-03-08T02:17:36;101730.00;;;2.53;100.00
66273;BME280;58450;52.150;4.466;2024-03-08T02:20:04;101727.47;;;2.51;100.00
66273;BME280;58450;52.150;4.466;2024-03-08T02:22:36;101726.50;;;2.53;100.00
66273;BME280;58450;52.150;4.466;2024-03-08T02:25:04;101721.41;;;2.49;100.00
66273;BME280;58450;52.150;4.466;2024-03-08T02:27:33;101715.25;;;2.49;100.00
66273;BME280;58450;52.150;4.466;2024-03-08T02:30:01;101711.84;;;2.47;100.00
66273;BME280;58450;52.150;4.466;2024-03-08T02:32:29;101703.13;;;2.45;100.00
66273;BME280;58450;52.150;4.466;2024-03-08T02:34:58;101704.09;;;2.44;100.00
66273;BME280;58450;52.150;4.466;2024-03-08T02:37:26;101697.31;;;2.40;100.00
66273;BME280;58450;52.150;4.466;2024-03-08T02:39:56;101687.88;;;2.35;100.00
66273;BME280;58450;52.150;4.466;2024-03-08T02:42:24;101694.28;;;2.33;100.00
66273;BME280;58450;52.150;4.466;2024-03-08T02:44:51;101696.19;;;2.31;100.00
66273;BME280;58450;52.150;4.466;2024-03-08T02:47:19;101685.06;;;2.26;100.00
66273;BME280;58450;52.150;4.466;2024-03-08T02:49:47;101686.00;;;2.25;100.00
66273;BME280;58450;52.150;4.466;2024-03-08T02:52:16;101676.69;;;2.19;100.00
66273;BME280;58450;52.150;4.466;2024-03-08T02:54:43;101671.38;;;2.19;100.00
66273;BME280;58450;52.150;4.466;2024-03-08T02:57:14;101675.84;;;2.18;100.00
66273;BME280;58450;52.150;4.466;2024-03-08T02:59:42;101683.78;;;2.18;100.00
66273;BME280;58450;52.150;4.466;2024-03-08T03:02:09;101679.78;;;2.13;100.00
66273;BME280;58450;52.150;4.466;2024-03-08T03:04:39;101672.88;;;2.10;100.00
66273;BME280;58450;52.150;4.466;2024-03-08T03:07:07;101670.97;;;2.12;100.00
66273;BME280;58450;52.150;4.466;2024-03-08T03:09:34;101663.13;;;2.11;100.00
66273;BME280;58450;52.150;4.466;2024-03-08T03:12:02;101661.66;;;2.06;100.00
66273;BME280;58450;52.150;4.466;2024-03-08T03:14:31;101663.56;;;2.04;100.00
66273;BME280;58450;52.150;4.466;2024-03-08T03:16:59;101666.22;;;2.04;100.00
66273;BME280;58450;52.150;4.466;2024-03-08T03:19:28;101657.38;;;2.04;100.00
66273;BME280;58450;52.150;4.466;2024-03-08T03:21:56;101650.28;;;2.04;100.00
66273;BME280;58450;52.150;4.466;2024-03-08T03:24:24;101653.25;;;2.00;100.00
66273;BME280;58450;52.150;4.466;2024-03-08T03:26:51;101649.03;;;1.97;100.00
66273;BME280;58450;52.150;4.466;2024-03-08T03:29:19;101652.53;;;1.98;100.00
66273;BME280;58450;52.150;4.466;2024-03-08T03:31:47;101650.09;;;1.95;100.00
66273;BME280;58450;52.150;4.466;2024-03-08T03:34:15;101637.69;;;1.95;100.00
66273;BME280;58450;52.150;4.466;2024-03-08T03:36:42;101644.25;;;1.89;100.00
66273;BME280;58450;52.150;4.466;2024-03-08T03:39:13;101644.38;;;1.88;100.00
66273;BME280;58450;52.150;4.466;2024-03-08T03:41:42;101636.66;;;1.85;100.00
66273;BME280;58450;52.150;4.466;2024-03-08T03:44:11;101632.38;;;1.82;100.00
66273;BME280;58450;52.150;4.466;2024-03-08T03:46:41;101640.47;;;1.81;100.00
66273;BME280;58450;52.150;4.466;2024-03-08T03:49:12;101631.56;;;1.82;100.00
66273;BME280;58450;52.150;4.466;2024-03-08T03:51:40;101637.81;;;1.81;100.00
66273;BME280;58450;52.150;4.466;2024-03-08T03:54:07;101628.25;;;1.78;100.00
66273;BME280;58450;52.150;4.466;2024-03-08T03:56:35;101626.69;;;1.75;100.00
66273;BME280;58450;52.150;4.466;2024-03-08T03:59:02;101626.81;;;1.74;100.00
66273;BME280;58450;52.150;4.466;2024-03-08T04:01:30;101622.56;;;1.71;100.00
66273;BME280;58450;52.150;4.466;2024-03-08T04:03:57;101628.94;;;1.69;100.00
66273;BME280;58450;52.150;4.466;2024-03-08T04:06:26;101620.03;;;1.70;100.00
66273;BME280;58450;52.150;4.466;2024-03-08T04:08:54;101617.59;;;1.67;100.00
66273;BME280;58450;52.150;4.466;2024-03-08T04:11:22;101613.13;;;1.67;100.00
66273;BME280;58450;52.150;4.466;2024-03-08T04:13:49;101606.13;;;1.66;100.00
66273;BME280;58450;52.150;4.466;2024-03-08T04:16:18;101606.34;;;1.63;100.00
66273;BME280;58450;52.150;4.466;2024-03-08T04:18:46;101601.16;;;1.61;100.00
66273;BME280;58450;52.150;4.466;2024-03-08T04:21:13;101603.91;;;1.60;100.00
66273;BME280;58450;52.150;4.466;2024-03-08T04:23:43;101602.19;;;1.59;100.00
66273;BME280;58450;52.150;4.466;2024-03-08T04:26:11;101597.03;;;1.57;100.00
66273;BME280;58450;52.150;4.466;2024-03-08T04:28:39;101592.75;;;1.55;100.00
66273;BME280;58450;52.150;4.466;2024-03-08T04:31:07;101598.19;;;1.53;100.00
66273;BME280;58450;52.150;4.466;2024-03-08T04:33:35;101600.84;;;1.53;100.00
66273;BME280;58450;52.150;4.466;2024-03-08T04:36:02;101594.81;;;1.51;100.00
66273;BME280;58450;52.150;4.466;2024-03-08T04:38:31;101596.59;;;1.51;100.00
66273;BME280;58450;52.150;4.466;2024-03-08T04:41:00;101593.19;;;1.48;100.00
66273;BME280;58450;52.150;4.466;2024-03-08T04:43:28;101592.47;;;1.46;100.00
66273;BME280;58450;52.150;4.466;2024-03-08T04:45:56;101592.69;;;1.43;100.00
66273;BME280;58450;52.150;4.466;2024-03-08T04:48:24;101590.97;;;1.42;100.00
66273;BME280;58450;52.150;4.466;2024-03-08T04:50:52;101593.84;;;1.39;100.00
66273;BME280;58450;52.150;4.466;2024-03-08T04:53:20;101593.97;;;1.38;100.00
66273;BME280;58450;52.150;4.466;2024-03-08T04:55:48;101594.06;;;1.36;100.00
66273;BME280;58450;52.150;4.466;2024-03-08T04:58:16;101587.94;;;1.36;100.00
66273;BME280;58450;52.150;4.466;2024-03-08T05:00:44;101590.78;;;1.32;100.00
66273;BME280;58450;52.150;4.466;2024-03-08T05:03:11;101589.22;;;1.30;100.00
66273;BME280;58450;52.150;4.466;2024-03-08T05:05:39;101575.09;;;1.29;100.00
66273;BME280;58450;52.150;4.466;2024-03-08T05:08:06;101563.53;;;1.30;100.00
66273;BME280;58450;52.150;4.466;2024-03-08T05:10:34;101582.22;;;1.29;100.00
66273;BME280;58450;52.150;4.466;2024-03-08T05:13:01;101584.13;;;1.27;100.00
66273;BME280;58450;52.150;4.466;2024-03-08T05:15:30;101582.44;;;1.26;100.00
66273;BME280;58450;52.150;4.466;2024-03-08T05:18:00;101576.28;;;1.25;100.00
66273;BME280;58450;52.150;4.466;2024-03-08T05:20:28;101573.75;;;1.24;100.00
66273;BME280;58450;52.150;4.466;2024-03-08T05:22:56;101572.88;;;1.23;100.00
66273;BME280;58450;52.150;4.466;2024-03-08T05:25:26;101573.84;;;1.22;100.00
66273;BME280;58450;52.150;4.466;2024-03-08T05:27:53;101565.03;;;1.22;100.00
66273;BME280;58450;52.150;4.466;2024-03-08T05:30:21;101560.78;;;1.19;100.00
66273;BME280;58450;52.150;4.466;2024-03-08T05:32:50;101555.63;;;1.17;100.00
66273;BME280;58450;52.150;4.466;2024-03-08T05:35:18;101561.88;;;1.16;100.00
66273;BME280;58450;52.150;4.466;2024-03-08T05:37:46;101558.56;;;1.13;100.00
66273;BME280;58450;52.150;4.466;2024-03-08T05:40:14;101562.19;;;1.12;100.00
66273;BME280;58450;52.150;4.466;2024-03-08T05:42:41;101565.69;;;1.12;100.00
66273;BME280;58450;52.150;4.466;2024-03-08T05:45:10;101561.44;;;1.10;100.00
66273;BME280;58450;52.150;4.466;2024-03-08T05:47:39;101559.75;;;1.09;100.00
66273;BME280;58450;52.150;4.466;2024-03-08T05:50:08;101557.22;;;1.07;100.00
66273;BME280;58450;52.150;4.466;2024-03-08T05:52:37;101558.91;;;1.08;100.00
66273;BME280;58450;52.150;4.466;2024-03-08T05:55:05;101565.16;;;1.07;100.00
66273;BME280;58450;52.150;4.466;2024-03-08T05:57:34;101558.16;;;1.06;100.00
66273;BME280;58450;52.150;4.466;2024-03-08T06:00:04;101553.91;;;1.03;100.00
66273;BME280;58450;52.150;4.466;2024-03-08T06:02:33;101551.38;;;1.02;100.00
66273;BME280;58450;52.150;4.466;2024-03-08T06:05:02;101546.91;;;1.02;100.00
66273;BME280;58450;52.150;4.466;2024-03-08T06:07:32;101547.78;;;1.03;100.00
66273;BME280;58450;52.150;4.466;2024-03-08T06:09:59;101544.38;;;1.01;100.00
66273;BME280;58450;52.150;4.466;2024-03-08T06:12:27;101540.78;;;1.02;100.00
66273;BME280;58450;52.150;4.466;2024-03-08T06:14:58;101545.34;;;1.00;100.00
66273;BME280;58450;52.150;4.466;2024-03-08T06:17:26;101537.38;;;1.00;100.00
66273;BME280;58450;52.150;4.466;2024-03-08T06:19:53;101539.81;;;1.03;100.00
66273;BME280;58450;52.150;4.466;2024-03-08T06:22:21;101541.53;;;1.04;100.00
66273;BME280;58450;52.150;4.466;2024-03-08T06:24:50;101536.22;;;1.04;100.00
66273;BME280;58450;52.150;4.466;2024-03-08T06:27:20;101540.13;;;1.11;100.00
66273;BME280;58450;52.150;4.466;2024-03-08T06:29:47;101535.56;;;1.13;100.00
66273;BME280;58450;52.150;4.466;2024-03-08T06:32:15;101540.44;;;1.20;100.00
66273;BME280;58450;52.150;4.466;2024-03-08T06:34:42;101530.25;;;1.26;100.00
66273;BME280;58450;52.150;4.466;2024-03-08T06:37:10;101523.88;;;1.29;100.00
66273;BME280;58450;52.150;4.466;2024-03-08T06:39:37;101520.03;;;1.33;100.00
66273;BME280;58450;52.150;4.466;2024-03-08T06:42:07;101518.97;;;1.36;100.00
66273;BME280;58450;52.150;4.466;2024-03-08T06:44:36;101520.22;;;1.43;100.00
66273;BME280;58450;52.150;4.466;2024-03-08T06:47:04;101517.88;;;1.51;100.00
66273;BME280;58450;52.150;4.466;2024-03-08T06:49:32;101517.53;;;1.56;100.00
66273;BME280;58450;52.150;4.466;2024-03-08T06:51:59;101512.63;;;1.62;100.00
66273;BME280;58450;52.150;4.466;2024-03-08T06:54:27;101504.31;;;1.67;100.00
66273;BME280;58450;52.150;4.466;2024-03-08T06:56:54;101517.75;;;1.77;100.00
66273;BME280;58450;52.150;4.466;2024-03-08T06:59:23;101505.28;;;1.90;100.00
66273;BME280;58450;52.150;4.466;2024-03-08T07:01:51;101504.13;;;2.06;100.00
66273;BME280;58450;52.150;4.466;2024-03-08T07:04:20;101497.53;;;2.23;100.00
66273;BME280;58450;52.150;4.466;2024-03-08T07:06:50;101497.47;;;2.36;100.00
66273;BME280;58450;52.150;4.466;2024-03-08T07:09:17;101499.06;;;2.50;100.00
66273;BME280;58450;52.150;4.466;2024-03-08T07:11:45;101496.91;;;2.55;100.00
66273;BME280;58450;52.150;4.466;2024-03-08T07:14:12;101497.16;;;2.63;100.00
66273;BME280;58450;52.150;4.466;2024-03-08T07:16:42;101491.25;;;2.71;100.00
66273;BME280;58450;52.150;4.466;2024-03-08T07:19:10;101482.31;;;2.72;100.00
66273;BME280;58450;52.150;4.466;2024-03-08T07:21:38;101487.53;;;2.85;100.00
66273;BME280;58450;52.150;4.466;2024-03-08T07:24:06;101483.19;;;2.95;100.00
66273;BME280;58450;52.150;4.466;2024-03-08T07:26:53;101491.25;;;3.05;100.00
66273;BME280;58450;52.150;4.466;2024-03-08T07:29:21;101481.81;;;3.24;100.00
66273;BME280;58450;52.150;4.466;2024-03-08T07:31:50;101482.84;;;3.44;100.00
66273;BME280;58450;52.150;4.466;2024-03-08T07:34:27;101486.00;;;3.82;100.00
66273;BME280;58450;52.150;4.466;2024-03-08T07:36:56;101491.00;;;4.08;100.00
66273;BME280;58450;52.150;4.466;2024-03-08T07:39:23;101483.72;;;4.31;100.00
66273;BME280;58450;52.150;4.466;2024-03-08T07:41:51;101483.25;;;4.47;100.00
66273;BME280;58450;52.150;4.466;2024-03-08T07:44:19;101472.63;;;4.78;100.00
66273;BME280;58450;52.150;4.466;2024-03-08T07:46:49;101468.94;;;5.10;100.00
66273;BME280;58450;52.150;4.466;2024-03-08T07:49:18;101470.59;;;5.52;100.00
66273;BME280;58450;52.150;4.466;2024-03-08T07:51:45;101469.63;;;5.73;100.00
66273;BME280;58450;52.150;4.466;2024-03-08T07:54:13;101474.25;;;6.20;100.00
66273;BME280;58450;52.150;4.466;2024-03-08T07:56:40;101463.81;;;6.36;100.00
66273;BME280;58450;52.150;4.466;2024-03-08T07:59:10;101467.22;;;6.76;100.00
66273;BME280;58450;52.150;4.466;2024-03-08T08:01:38;101455.38;;;7.17;100.00
66273;BME280;58450;52.150;4.466;2024-03-08T08:04:07;101450.75;;;7.09;100.00
66273;BME280;58450;52.150;4.466;2024-03-08T08:06:38;101465.13;;;7.54;100.00
66273;BME280;58450;52.150;4.466;2024-03-08T08:09:07;101463.47;;;7.71;100.00
66273;BME280;58450;52.150;4.466;2024-03-08T08:11:40;101462.97;;;8.12;100.00
66273;BME280;58450;52.150;4.466;2024-03-08T08:14:09;101457.56;;;8.30;100.00
66273;BME280;58450;52.150;4.466;2024-03-08T08:16:37;101458.97;;;8.61;100.00
66273;BME280;58450;52.150;4.466;2024-03-08T08:19:08;101452.84;;;9.11;100.00
66273;BME280;58450;52.150;4.466;2024-03-08T08:21:36;101446.47;;;9.12;100.00
66273;BME280;58450;52.150;4.466;2024-03-08T08:24:04;101439.97;;;9.40;100.00
66273;BME280;58450;52.150;4.466;2024-03-08T08:26:32;101437.50;;;9.63;100.00
66273;BME280;58450;52.150;4.466;2024-03-08T08:29:02;101440.03;;;9.81;100.00
66273;BME280;58450;52.150;4.466;2024-03-08T08:31:29;101425.75;;;9.81;96.43
66273;BME280;58450;52.150;4.466;2024-03-08T08:33:59;101429.78;;;10.10;97.06
66273;BME280;58450;52.150;4.466;2024-03-08T08:36:30;101424.69;;;10.23;95.62
66273;BME280;58450;52.150;4.466;2024-03-08T08:38:57;101426.56;;;10.14;93.08
66273;BME280;58450;52.150;4.466;2024-03-08T08:41:25;101419.34;;;10.15;91.00
66273;BME280;58450;52.150;4.466;2024-03-08T08:43:53;101421.31;;;10.29;90.50
66273;BME280;58450;52.150;4.466;2024-03-08T08:46:20;101422.53;;;10.27;88.14
66273;BME280;58450;52.150;4.466;2024-03-08T08:48:48;101418.25;;;10.66;89.46
66273;BME280;58450;52.150;4.466;2024-03-08T08:51:15;101406.69;;;10.97;87.72
66273;BME280;58450;52.150;4.466;2024-03-08T08:53:44;101408.13;;;11.39;86.27
66273;BME280;58450;52.150;4.466;2024-03-08T08:56:13;101398.50;;;11.45;83.86
66273;BME280;58450;52.150;4.466;2024-03-08T08:58:41;101392.00;;;11.54;81.65
66273;BME280;58450;52.150;4.466;2024-03-08T09:01:09;101401.88;;;11.85;80.70
66273;BME280;58450;52.150;4.466;2024-03-08T09:03:37;101387.84;;;11.90;79.16
66273;BME280;58450;52.150;4.466;2024-03-08T09:06:07;101391.84;;;11.56;76.93
66273;BME280;58450;52.150;4.466;2024-03-08T09:08:36;101389.44;;;11.61;77.57
66273;BME280;58450;52.150;4.466;2024-03-08T09:11:05;101382.03;;;11.40;77.23
66273;BME280;58450;52.150;4.466;2024-03-08T09:13:33;101386.53;;;11.16;76.66
66273;BME280;58450;52.150;4.466;2024-03-08T09:16:02;101382.59;;;11.73;78.64
66273;BME280;58450;52.150;4.466;2024-03-08T09:18:31;101379.47;;;11.85;76.51
66273;BME280;58450;52.150;4.466;2024-03-08T09:20:59;101378.81;;;12.21;75.69
66273;BME280;58450;52.150;4.466;2024-03-08T09:23:26;101371.63;;;12.13;72.67
66273;BME280;58450;52.150;4.466;2024-03-08T09:25:56;101365.53;;;11.96;73.14
66273;BME280;58450;52.150;4.466;2024-03-08T09:28:25;101370.50;;;12.07;73.69
66273;BME280;58450;52.150;4.466;2024-03-08T09:30:53;101357.13;;;12.29;72.74
66273;BME280;58450;52.150;4.466;2024-03-08T09:33:21;101350.63;;;12.38;72.22
66273;BME280;58450;52.150;4.466;2024-03-08T09:35:48;101348.00;;;12.60;70.85
66273;BME280;58450;52.150;4.466;2024-03-08T09:38:17;101349.13;;;12.51;70.56
66273;BME280;58450;52.150;4.466;2024-03-08T09:40:46;101346.69;;;12.41;70.07
66273;BME280;58450;52.150;4.466;2024-03-08T09:43:14;101343.09;;;12.34;69.58
66273;BME280;58450;52.150;4.466;2024-03-08T09:45:45;101331.97;;;11.98;70.38
66273;BME280;58450;52.150;4.466;2024-03-08T09:48:17;101324.56;;;12.01;72.11
66273;BME280;58450;52.150;4.466;2024-03-08T09:50:46;101322.06;;;11.76;71.95
66273;BME280;58450;52.150;4.466;2024-03-08T09:53:15;101309.66;;;12.50;71.69
66273;BME280;58450;52.150;4.466;2024-03-08T09:55:42;101302.63;;;12.70;71.34
66273;BME280;58450;52.150;4.466;2024-03-08T09:58:12;101303.69;;;12.39;69.76
66273;BME280;58450;52.150;4.466;2024-03-08T10:01:16;101286.31;;;12.27;69.56
66273;BME280;58450;52.150;4.466;2024-03-08T10:03:47;101284.50;;;12.86;70.03
66273;BME280;58450;52.150;4.466;2024-03-08T10:06:15;101271.63;;;13.32;69.29
66273;BME280;58450;52.150;4.466;2024-03-08T10:08:42;101268.72;;;13.55;67.70
66273;BME280;58450;52.150;4.466;2024-03-08T10:11:11;101268.00;;;13.68;65.14
66273;BME280;58450;52.150;4.466;2024-03-08T10:13:39;101264.72;;;13.79;65.72
66273;BME280;58450;52.150;4.466;2024-03-08T10:16:07;101259.56;;;14.26;65.26
66273;BME280;58450;52.150;4.466;2024-03-08T10:18:36;101260.75;;;14.10;64.58
66273;BME280;58450;52.150;4.466;2024-03-08T10:21:05;101237.97;;;14.33;63.90
66273;BME280;58450;52.150;4.466;2024-03-08T10:23:36;101241.72;;;14.39;62.72
66273;BME280;58450;52.150;4.466;2024-03-08T10:26:10;101241.63;;;14.12;63.71
66273;BME280;58450;52.150;4.466;2024-03-08T10:28:41;101236.66;;;14.91;63.42
66273;BME280;58450;52.150;4.466;2024-03-08T10:31:09;101230.84;;;15.55;62.01
66273;BME280;58450;52.150;4.466;2024-03-08T10:33:38;101231.63;;;15.75;60.52
66273;BME280;58450;52.150;4.466;2024-03-08T10:36:07;101223.66;;;16.01;58.63
66273;BME280;58450;52.150;4.466;2024-03-08T10:38:37;101225.75;;;15.85;56.98
66273;BME280;58450;52.150;4.466;2024-03-08T10:41:06;101218.25;;;16.39;58.10
66273;BME280;58450;52.150;4.466;2024-03-08T10:43:46;101222.91;;;15.33;57.68
66273;BME280;58450;52.150;4.466;2024-03-08T10:46:42;101203.41;;;15.97;58.25
66273;BME280;58450;52.150;4.466;2024-03-08T10:49:26;101196.72;;;16.38;57.88
66273;BME280;58450;52.150;4.466;2024-03-08T10:52:02;101192.34;;;16.37;55.60
66273;BME280;58450;52.150;4.466;2024-03-08T10:54:32;101192.94;;;16.07;56.58
66273;BME280;58450;52.150;4.466;2024-03-08T10:57:03;101177.34;;;16.34;56.45
66273;BME280;58450;52.150;4.466;2024-03-08T10:59:34;101176.03;;;15.98;55.83
66273;BME280;58450;52.150;4.466;2024-03-08T11:02:02;101180.50;;;15.72;57.16
66273;BME280;58450;52.150;4.466;2024-03-08T11:04:32;101172.63;;;15.50;56.77
66273;BME280;58450;52.150;4.466;2024-03-08T11:07:01;101156.31;;;15.57;56.70
66273;BME280;58450;52.150;4.466;2024-03-08T11:09:34;101160.44;;;15.87;55.81
66273;BME280;58450;52.150;4.466;2024-03-08T11:12:21;101149.56;;;16.32;56.01
66273;BME280;58450;52.150;4.466;2024-03-08T11:14:52;101138.38;;;15.63;54.63
66273;BME280;58450;52.150;4.466;2024-03-08T11:17:21;101142.88;;;14.70;54.29
66273;BME280;58450;52.150;4.466;2024-03-08T11:19:56;101137.03;;;14.73;55.47
66273;BME280;58450;52.150;4.466;2024-03-08T11:22:28;101125.13;;;15.07;56.34
66273;BME280;58450;52.150;4.466;2024-03-08T11:24:58;101128.47;;;14.83;56.95
66273;BME280;58450;52.150;4.466;2024-03-08T11:27:29;101119.31;;;14.84;57.52
66273;BME280;58450;52.150;4.466;2024-03-08T11:30:01;101126.59;;;14.90;57.76
66273;BME280;58450;52.150;4.466;2024-03-08T11:32:38;101113.06;;;14.83;57.69
66273;BME280;58450;52.150;4.466;2024-03-08T11:35:08;101106.53;;;15.31;57.25
66273;BME280;58450;52.150;4.466;2024-03-08T11:37:46;101098.34;;;15.51;57.42
66273;BME280;58450;52.150;4.466;2024-03-08T11:40:14;101088.88;;;15.68;57.22
66273;BME280;58450;52.150;4.466;2024-03-08T11:42:44;101079.97;;;15.47;56.90
66273;BME280;58450;52.150;4.466;2024-03-08T11:45:14;101092.63;;;15.01;56.96
66273;BME280;58450;52.150;4.466;2024-03-08T11:47:43;101087.59;;;14.64;57.89
66273;BME280;58450;52.150;4.466;2024-03-08T11:50:13;101079.72;;;14.56;58.34
66273;BME280;58450;52.150;4.466;2024-03-08T11:52:43;101087.41;;;13.63;59.51
66273;BME280;58450;52.150;4.466;2024-03-08T11:55:11;101077.72;;;13.89;59.92
66273;BME280;58450;52.150;4.466;2024-03-08T11:57:39;101072.94;;;13.98;60.47
66273;BME280;58450;52.150;4.466;2024-03-08T12:00:15;101069.03;;;14.27;60.02
66273;BME280;58450;52.150;4.466;2024-03-08T12:03:01;101075.34;;;14.55;59.95
66273;BME280;58450;52.150;4.466;2024-03-08T12:05:31;101054.88;;;14.99;58.62
66273;BME280;58450;52.150;4.466;2024-03-08T12:07:59;101062.41;;;14.84;56.37
66273;BME280;58450;52.150;4.466;2024-03-08T12:10:28;101052.81;;;15.60;56.44
66273;BME280;58450;52.150;4.466;2024-03-08T12:12:58;101048.28;;;15.93;55.57
66273;BME280;58450;52.150;4.466;2024-03-08T12:15:27;101053.63;;;16.06;54.99
66273;BME280;58450;52.150;4.466;2024-03-08T12:17:58;101044.06;;;16.04;53.57
66273;BME280;58450;52.150;4.466;2024-03-08T12:20:27;101044.31;;;16.53;53.47
66273;BME280;58450;52.150;4.466;2024-03-08T12:23:13;101036.72;;;16.11;52.26
66273;BME280;58450;52.150;4.466;2024-03-08T12:25:42;101024.78;;;16.63;52.32
66273;BME280;58450;52.150;4.466;2024-03-08T12:28:11;101026.31;;;17.03;51.45
66273;BME280;58450;52.150;4.466;2024-03-08T12:30:46;101021.91;;;17.88;50.32
66273;BME280;58450;52.150;4.466;2024-03-08T12:33:15;101021.16;;;18.23;48.60
66273;BME280;58450;52.150;4.466;2024-03-08T12:35:50;101013.94;;;18.17;46.79
66273;BME280;58450;52.150;4.466;2024-03-08T12:38:22;100998.19;;;17.77;45.16
66273;BME280;58450;52.150;4.466;2024-03-08T12:40:55;100987.84;;;17.36;44.46
66273;BME280;58450;52.150;4.466;2024-03-08T12:43:25;101002.56;;;16.73;44.77
66273;BME280;58450;52.150;4.466;2024-03-08T12:45:56;101005.38;;;16.08;45.25
66273;BME280;58450;52.150;4.466;2024-03-08T12:48:23;100990.44;;;16.50;44.67
66273;BME280;58450;52.150;4.466;2024-03-08T12:50:51;100987.84;;;16.80;44.94
66273;BME280;58450;52.150;4.466;2024-03-08T12:53:22;100999.16;;;18.25;43.97
66273;BME280;58450;52.150;4.466;2024-03-08T12:55:51;100979.97;;;17.28;43.95
66273;BME280;58450;52.150;4.466;2024-03-08T12:58:22;100985.25;;;17.41;43.72
66273;BME280;58450;52.150;4.466;2024-03-08T13:00:49;100990.97;;;17.03;45.14